Portada
METAR-TAF:

METAR-TAF

Aeropuertos :

Teherán, Irán

Aeropuerto Internacional de Mehrabad

latitud: 35-41N, longitud: 051-21E, altitud: 1204 m

Observación

El informe se hizo hace 46 minutos, a las 00:30 UTC
Viento 6 kt del norte-noroeste
Temperatura 9°C
Humedad 57%
Presión 1015 hPa
Visibilidad 10 km o más
Escasas nubes a una altura de 3500 ft, Cumulonimbus.
Cielo nuboso a una altura de 10000 ft

METAR: OIII 240030Z 33006KT 9999 FEW035CB BKN100 09/01 Q1014 A2997

Hora: 04:46 (01:16 UTC)

Pronóstico

El informe se hizo hace 2 horas y 16 minutos, a las 23:00 UTC
Pronóstico válido del 24 a las 00 UTC al 25 a las 06 UTC
Viento 8 kt del norte
Visibilidad: 8000 m
Escasas nubes a una altura de 4000 ft

TAF: OIII 232300Z 2400/2506 35004MPS 8000 FEW040

Observaciones y pronósticos meteorológicos de más de 4000 aeropuertos (mensajes METAR y TAF).

Los puntos amarillos y rojos representan las estaciones disponibles.

Ponga el ratón en el punto deseado para ver el nombre de la estación.

Haga clic para ver las observaciones y los pronósticos meteorológicos.

Para cambiar el mapa : haga clic en los botones verdes con una cruz de color negro para hacer un zoom, en el botón verde con un guión para alejar o en las flechas verdes para mapas adyacentes.


METAR-TAF: